createdAt,value
2022-12-19T00:00:16.411Z,88
2022-12-19T00:02:17.954Z,88
2022-12-19T00:04:23.973Z,88
2022-12-19T00:06:17.433Z,88
2022-12-19T00:08:19.365Z,88
2022-12-19T00:10:18.651Z,88
2022-12-19T00:12:19.339Z,88
2022-12-19T00:16:18.939Z,88
2022-12-19T00:18:17.342Z,88
2022-12-19T00:20:19.186Z,88
2022-12-19T00:22:18.168Z,88
2022-12-19T00:24:21.004Z,88
2022-12-19T00:26:17.196Z,88
2022-12-19T00:28:19.116Z,88
2022-12-19T00:30:17.918Z,88
2022-12-19T00:32:20.054Z,88
2022-12-19T00:34:20.758Z,88
2022-12-19T00:36:22.688Z,88
2022-12-19T00:38:19.473Z,88
2022-12-19T00:40:18.195Z,88
2022-12-19T00:42:23.352Z,88
2022-12-19T00:44:17.390Z,88
2022-12-19T00:46:19.489Z,88
2022-12-19T00:48:18.057Z,88
2022-12-19T00:50:18.112Z,88
2022-12-19T00:52:17.343Z,88
2022-12-19T00:54:19.148Z,88
2022-12-19T00:56:17.758Z,88
2022-12-19T00:58:17.187Z,88
2022-12-19T01:00:18.180Z,88
2022-12-19T01:02:18.733Z,88
2022-12-19T01:04:30.649Z,88
2022-12-19T01:06:19.436Z,88
2022-12-19T01:08:18.129Z,88
2022-12-19T01:10:17.621Z,88
2022-12-19T01:12:19.386Z,88
2022-12-19T01:16:19.116Z,88
2022-12-19T01:18:18.419Z,88
2022-12-19T01:20:17.543Z,88
2022-12-19T01:22:19.616Z,88
2022-12-19T01:24:18.922Z,88
2022-12-19T01:26:17.614Z,88
2022-12-19T01:28:20.083Z,88
2022-12-19T01:30:17.533Z,88
2022-12-19T01:32:19.614Z,88
2022-12-19T01:34:17.369Z,88
2022-12-19T01:36:18.795Z,88
2022-12-19T01:38:18.509Z,88
2022-12-19T01:40:17.380Z,88
2022-12-19T01:42:22.961Z,88
2022-12-19T01:44:16.424Z,88
2022-12-19T01:46:18.901Z,88
2022-12-19T01:48:17.353Z,88
2022-12-19T01:50:20.517Z,88
2022-12-19T01:52:23.516Z,88
2022-12-19T01:54:20.592Z,88
2022-12-19T01:56:20.211Z,88
2022-12-19T01:58:17.307Z,88
2022-12-19T02:00:20.847Z,88
2022-12-19T02:02:17.651Z,88
2022-12-19T02:04:18.224Z,88
2022-12-19T02:06:20.671Z,88
2022-12-19T02:10:17.284Z,88
2022-12-19T02:12:19.389Z,88
2022-12-19T02:14:20.296Z,88
2022-12-19T02:16:16.436Z,88
2022-12-19T02:18:17.318Z,88
2022-12-19T02:20:19.535Z,88
2022-12-19T02:24:19.018Z,88
2022-12-19T02:26:19.397Z,88
2022-12-19T02:28:20.847Z,88
2022-12-19T02:30:20.759Z,88
2022-12-19T02:32:17.263Z,88
2022-12-19T02:34:20.319Z,88
2022-12-19T02:36:17.294Z,88
2022-12-19T02:38:20.557Z,88
2022-12-19T02:40:17.338Z,88
2022-12-19T02:42:18.122Z,88
2022-12-19T02:44:19.070Z,88
2022-12-19T02:46:17.805Z,88
2022-12-19T02:48:22.136Z,88
2022-12-19T02:50:18.661Z,88
2022-12-19T02:52:17.823Z,88
2022-12-19T02:54:18.703Z,88
2022-12-19T02:56:17.321Z,88
2022-12-19T02:58:18.976Z,88
2022-12-19T03:00:18.273Z,88
2022-12-19T03:02:20.726Z,88
2022-12-19T03:04:17.318Z,88
2022-12-19T03:06:15.497Z,88
2022-12-19T03:08:16.443Z,88
2022-12-19T03:10:20.073Z,88
2022-12-19T03:12:17.835Z,88
2022-12-19T03:14:18.685Z,88
2022-12-19T03:16:20.610Z,88
2022-12-19T03:18:17.335Z,88
2022-12-19T03:20:16.136Z,88
2022-12-19T03:22:23.796Z,88
2022-12-19T03:24:20.871Z,88
2022-12-19T03:26:18.084Z,88
2022-12-19T03:28:19.301Z,88
2022-12-19T03:30:17.400Z,88
2022-12-19T03:32:17.489Z,88
2022-12-19T03:34:18.240Z,88
2022-12-19T03:36:16.865Z,88
2022-12-19T03:38:17.631Z,88
2022-12-19T03:40:17.856Z,88
2022-12-19T03:42:20.002Z,88
2022-12-19T03:44:17.398Z,88
2022-12-19T03:46:19.204Z,88
2022-12-19T03:48:19.121Z,88
2022-12-19T03:50:19.229Z,88
2022-12-19T03:52:17.408Z,88
2022-12-19T03:54:17.438Z,88
2022-12-19T03:58:18.714Z,88
2022-12-19T04:00:17.372Z,88
2022-12-19T04:02:17.521Z,88
2022-12-19T04:04:20.813Z,88
2022-12-19T04:06:20.833Z,88
2022-12-19T04:08:17.279Z,88
2022-12-19T04:10:18.989Z,88
2022-12-19T04:12:20.583Z,88
2022-12-19T04:14:17.252Z,88
2022-12-19T04:16:17.713Z,88
2022-12-19T04:18:17.881Z,88
2022-12-19T04:20:17.403Z,88
2022-12-19T04:22:23.849Z,88
2022-12-19T04:24:17.394Z,88
2022-12-19T04:26:20.342Z,88
2022-12-19T04:28:20.603Z,88
2022-12-19T04:30:17.748Z,88
2022-12-19T04:32:18.353Z,88
2022-12-19T04:34:18.360Z,88
2022-12-19T04:36:17.420Z,88
2022-12-19T04:38:19.632Z,88
2022-12-19T04:40:16.956Z,88
2022-12-19T04:42:19.613Z,88
2022-12-19T04:44:17.394Z,88
2022-12-19T04:46:17.783Z,88
2022-12-19T04:48:18.187Z,88
2022-12-19T04:50:17.647Z,88
2022-12-19T04:52:19.560Z,88
2022-12-19T04:54:16.791Z,88
2022-12-19T04:56:17.383Z,88
2022-12-19T04:58:21.983Z,88
2022-12-19T05:00:17.395Z,88
2022-12-19T05:02:17.508Z,88
2022-12-19T05:04:20.455Z,88
2022-12-19T05:06:19.030Z,88
2022-12-19T05:08:19.036Z,88
2022-12-19T05:10:17.402Z,88
2022-12-19T05:12:15.070Z,88
2022-12-19T05:16:19.276Z,88
2022-12-19T05:20:20.419Z,88
2022-12-19T05:22:17.426Z,88
2022-12-19T05:24:20.319Z,88
2022-12-19T05:26:17.851Z,88
2022-12-19T05:30:17.761Z,88
2022-12-19T05:32:17.940Z,88
2022-12-19T05:34:17.378Z,88
2022-12-19T05:36:15.140Z,88
2022-12-19T05:38:19.636Z,88
2022-12-19T05:40:18.086Z,88
2022-12-19T05:42:17.414Z,88
2022-12-19T05:44:20.555Z,88
2022-12-19T05:46:20.800Z,88
2022-12-19T05:48:17.665Z,88
2022-12-19T05:50:20.537Z,88
2022-12-19T05:52:17.722Z,88
2022-12-19T05:54:17.669Z,88
2022-12-19T05:56:17.535Z,88
2022-12-19T05:58:17.649Z,88
2022-12-19T06:00:16.833Z,88
2022-12-19T06:02:20.703Z,88
2022-12-19T06:04:18.824Z,88
2022-12-19T06:06:17.627Z,88
2022-12-19T06:08:20.674Z,88
2022-12-19T06:10:17.631Z,88
2022-12-19T06:14:16.904Z,88
2022-12-19T06:16:20.939Z,88
2022-12-19T06:18:17.744Z,88
2022-12-19T06:20:18.088Z,88
2022-12-19T06:22:19.452Z,88
2022-12-19T06:24:17.794Z,88
2022-12-19T06:26:20.587Z,88
2022-12-19T06:28:17.344Z,88
2022-12-19T06:30:20.451Z,88
2022-12-19T06:32:20.727Z,88
2022-12-19T06:34:39.739Z,88
2022-12-19T06:36:17.449Z,88
2022-12-19T06:38:17.786Z,88
2022-12-19T06:40:19.099Z,88
2022-12-19T06:42:17.650Z,88
2022-12-19T06:44:18.391Z,88
2022-12-19T06:48:18.770Z,88
2022-12-19T06:50:19.630Z,88
2022-12-19T06:52:17.228Z,88
2022-12-19T06:54:18.216Z,88
2022-12-19T06:56:17.433Z,88
2022-12-19T06:58:22.772Z,88
2022-12-19T07:00:17.799Z,88
2022-12-19T07:02:19.359Z,88
2022-12-19T07:04:19.610Z,88
2022-12-19T07:06:19.091Z,88
2022-12-19T07:08:17.445Z,88
2022-12-19T07:10:16.786Z,88
2022-12-19T07:12:17.663Z,88
2022-12-19T07:14:15.804Z,88
2022-12-19T07:16:20.672Z,88
2022-12-19T07:18:18.343Z,88
2022-12-19T07:20:20.767Z,88
2022-12-19T07:22:17.294Z,88
2022-12-19T07:24:18.304Z,88
2022-12-19T07:26:18.349Z,88
2022-12-19T07:28:17.353Z,88
2022-12-19T07:30:17.748Z,88
2022-12-19T07:32:18.265Z,88
2022-12-19T07:34:18.752Z,88
2022-12-19T07:36:17.420Z,88
2022-12-19T07:38:20.613Z,88
2022-12-19T07:40:19.060Z,88
2022-12-19T07:42:19.124Z,88
2022-12-19T07:44:18.254Z,88
2022-12-19T07:46:19.233Z,88
2022-12-19T07:48:16.495Z,88
2022-12-19T07:50:17.517Z,88
2022-12-19T07:52:19.552Z,88
2022-12-19T07:54:20.779Z,88
2022-12-19T07:56:19.124Z,87
2022-12-19T07:58:19.679Z,88
2022-12-19T08:00:18.164Z,87
2022-12-19T08:02:19.770Z,88
2022-12-19T08:04:19.452Z,88
2022-12-19T08:06:18.834Z,87
2022-12-19T08:08:14.716Z,88
2022-12-19T08:10:20.733Z,88
2022-12-19T08:14:19.191Z,87
2022-12-19T08:16:14.820Z,87
2022-12-19T08:18:20.878Z,88
2022-12-19T08:20:18.622Z,88
2022-12-19T08:22:18.323Z,87
2022-12-19T08:24:17.650Z,87
2022-12-19T08:26:16.526Z,88
2022-12-19T08:28:19.683Z,87
2022-12-19T08:30:19.655Z,87
2022-12-19T08:32:21.380Z,88
2022-12-19T08:34:17.696Z,87
2022-12-19T08:36:20.160Z,87
2022-12-19T08:38:20.663Z,87
2022-12-19T08:40:23.805Z,87
2022-12-19T08:42:17.459Z,87
2022-12-19T08:44:18.041Z,87
2022-12-19T08:46:17.469Z,87
2022-12-19T08:48:23.559Z,87
2022-12-19T08:50:17.515Z,87
2022-12-19T08:52:17.510Z,87
2022-12-19T08:54:16.863Z,87
2022-12-19T08:56:19.620Z,86
2022-12-19T08:58:20.068Z,86
2022-12-19T09:00:17.975Z,86
2022-12-19T09:02:20.916Z,86
2022-12-19T09:05:17.901Z,86
2022-12-19T09:06:24.117Z,86
2022-12-19T09:08:18.513Z,86
2022-12-19T09:10:19.640Z,86
2022-12-19T09:12:17.559Z,85
2022-12-19T09:14:21.104Z,85
2022-12-19T09:16:20.356Z,85
2022-12-19T09:18:17.623Z,85
2022-12-19T09:20:23.126Z,85
2022-12-19T09:22:17.919Z,85
2022-12-19T09:24:20.822Z,85
2022-12-19T09:28:27.173Z,86
2022-12-19T09:30:18.794Z,85
2022-12-19T09:32:17.475Z,84
2022-12-19T09:34:17.487Z,85
2022-12-19T09:36:19.702Z,84
2022-12-19T09:38:17.513Z,85
2022-12-19T09:40:15.260Z,85
2022-12-19T09:42:18.408Z,84
2022-12-19T09:44:17.609Z,84
2022-12-19T09:46:18.750Z,83
2022-12-19T09:48:23.761Z,85
2022-12-19T09:50:19.600Z,85
2022-12-19T09:52:17.493Z,85
2022-12-19T09:54:14.562Z,85
2022-12-19T09:56:17.937Z,85
2022-12-19T09:58:20.084Z,85
2022-12-19T10:00:15.159Z,85
2022-12-19T10:02:17.696Z,85
2022-12-19T10:04:19.116Z,84
2022-12-19T10:06:35.721Z,84
2022-12-19T10:08:17.429Z,84
2022-12-19T10:11:51.968Z,84
2022-12-19T10:12:41.621Z,84
2022-12-19T10:14:19.992Z,84
2022-12-19T10:16:18.861Z,84
2022-12-19T10:18:19.763Z,84
2022-12-19T10:20:19.198Z,84
2022-12-19T10:22:19.598Z,84
2022-12-19T10:24:19.666Z,85
2022-12-19T10:26:20.996Z,84
2022-12-19T10:28:17.471Z,84
2022-12-19T10:30:17.766Z,84
2022-12-19T10:32:16.634Z,84
2022-12-19T10:34:21.031Z,84
2022-12-19T10:36:17.787Z,85
2022-12-19T10:38:20.738Z,84
2022-12-19T10:40:26.503Z,84
2022-12-19T10:44:19.712Z,84
2022-12-19T10:46:20.884Z,83
2022-12-19T10:48:18.191Z,83
2022-12-19T10:50:18.347Z,83
2022-12-19T10:52:20.926Z,83
2022-12-19T10:54:18.736Z,83
2022-12-19T10:56:16.957Z,83
2022-12-19T10:58:18.839Z,83
2022-12-19T11:00:17.943Z,83
2022-12-19T11:02:17.499Z,83
2022-12-19T11:04:14.793Z,83
2022-12-19T11:06:18.776Z,83
2022-12-19T11:08:18.937Z,83
2022-12-19T11:10:46.160Z,84
2022-12-19T11:13:19.480Z,84
2022-12-19T11:16:46.318Z,83
2022-12-19T11:18:17.142Z,84
2022-12-19T11:19:46.267Z,84
2022-12-19T11:29:15.919Z,84
2022-12-19T11:29:29.339Z,84
2022-12-19T11:29:29.550Z,84
2022-12-19T11:30:24.508Z,84
2022-12-19T11:31:50.722Z,84
2022-12-19T11:32:39.324Z,84
2022-12-19T11:36:19.244Z,83
2022-12-19T11:38:20.839Z,83
2022-12-19T11:40:17.287Z,83
2022-12-19T11:42:17.501Z,83
2022-12-19T11:44:17.980Z,83
2022-12-19T11:46:22.176Z,83
2022-12-19T11:48:18.810Z,83
2022-12-19T11:50:20.889Z,83
2022-12-19T11:52:54.009Z,83
2022-12-19T11:54:20.755Z,84
2022-12-19T11:56:18.248Z,84
2022-12-19T11:58:18.709Z,84
2022-12-19T12:00:17.824Z,84
2022-12-19T12:02:18.359Z,84
2022-12-19T12:06:17.561Z,84
2022-12-19T12:08:38.098Z,84
2022-12-19T12:11:05.366Z,84
2022-12-19T12:14:07.102Z,84
2022-12-19T12:17:29.541Z,83
2022-12-19T12:22:32.965Z,83
2022-12-19T12:26:16.411Z,83
2022-12-19T12:28:34.615Z,84
2022-12-19T12:31:03.169Z,84
2022-12-19T12:31:03.795Z,84
2022-12-19T12:31:34.353Z,84
2022-12-19T12:31:37.105Z,84
2022-12-19T12:31:38.025Z,84
2022-12-19T12:35:26.689Z,84
2022-12-19T12:35:28.300Z,84
2022-12-19T12:37:45.945Z,83
2022-12-19T12:38:24.268Z,83
2022-12-19T12:40:23.823Z,84
2022-12-19T12:42:19.780Z,84
2022-12-19T12:44:16.592Z,84
2022-12-19T12:46:23.885Z,84
2022-12-19T12:48:20.665Z,84
2022-12-19T12:50:23.760Z,85
2022-12-19T12:52:19.148Z,85
2022-12-19T12:54:17.566Z,84
2022-12-19T12:56:19.611Z,84
2022-12-19T12:58:23.781Z,84
2022-12-19T13:00:18.007Z,84
2022-12-19T13:02:17.905Z,85
2022-12-19T13:04:17.339Z,85
2022-12-19T13:06:17.480Z,85
2022-12-19T13:08:18.492Z,86
2022-12-19T13:10:18.417Z,86
2022-12-19T13:12:18.273Z,86
2022-12-19T13:14:20.798Z,86
2022-12-19T13:16:17.217Z,86
2022-12-19T13:18:19.409Z,85
2022-12-19T13:20:17.523Z,85
2022-12-19T13:22:18.388Z,85
2022-12-19T13:24:20.879Z,85
2022-12-19T13:26:19.894Z,85
2022-12-19T13:28:17.510Z,85
2022-12-19T13:30:15.675Z,85
2022-12-19T13:32:20.803Z,85
2022-12-19T13:34:17.564Z,85
2022-12-19T13:39:17.510Z,85
2022-12-19T13:39:47.087Z,85
2022-12-19T13:40:21.053Z,85
2022-12-19T13:42:20.761Z,85
2022-12-19T13:44:21.156Z,85
2022-12-19T13:46:18.805Z,85
2022-12-19T13:48:17.770Z,85
2022-12-19T13:50:15.174Z,85
2022-12-19T13:52:20.104Z,85
2022-12-19T13:54:22.356Z,85
2022-12-19T13:56:19.620Z,85
2022-12-19T13:58:21.036Z,85
2022-12-19T14:00:20.890Z,85
2022-12-19T14:02:17.719Z,85
2022-12-19T14:04:17.709Z,85
2022-12-19T14:06:21.084Z,85
2022-12-19T14:08:18.052Z,86
2022-12-19T14:11:28.193Z,86
2022-12-19T14:13:36.764Z,86
2022-12-19T14:14:23.749Z,86
2022-12-19T14:16:17.562Z,86
2022-12-19T14:18:42.081Z,86
2022-12-19T14:20:48.767Z,86
2022-12-19T14:22:20.976Z,86
2022-12-19T14:24:20.588Z,86
2022-12-19T14:28:16.505Z,87
2022-12-19T14:28:28.981Z,86
2022-12-19T14:30:29.504Z,87
2022-12-19T14:32:56.938Z,87
2022-12-19T14:34:43.588Z,87
2022-12-19T14:36:21.626Z,86
2022-12-19T14:39:21.377Z,87
2022-12-19T14:40:17.780Z,87
2022-12-19T14:42:17.996Z,87
2022-12-19T14:50:16.675Z,87
2022-12-19T14:50:16.754Z,87
2022-12-19T14:51:43.251Z,87
2022-12-19T14:52:36.237Z,87
2022-12-19T14:54:18.863Z,88
2022-12-19T14:55:04.872Z,88
2022-12-19T14:56:33.540Z,88
2022-12-19T14:58:51.859Z,88
2022-12-19T15:00:34.721Z,88
2022-12-19T15:02:27.758Z,88
2022-12-19T15:04:49.811Z,88
2022-12-19T15:06:32.207Z,88
2022-12-19T15:08:18.914Z,88
2022-12-19T15:11:02.072Z,88
2022-12-19T15:13:14.030Z,88
2022-12-19T15:14:49.965Z,89
2022-12-19T15:16:20.792Z,89
2022-12-19T15:18:17.561Z,89
2022-12-19T15:20:17.558Z,89
2022-12-19T15:26:17.365Z,89
2022-12-19T15:28:16.593Z,89
2022-12-19T15:30:17.562Z,89
2022-12-19T15:32:20.743Z,89
2022-12-19T15:36:19.773Z,89
2022-12-19T15:38:16.268Z,89
2022-12-19T15:40:20.960Z,89
2022-12-19T15:42:17.503Z,89
2022-12-19T15:44:14.883Z,89
2022-12-19T15:46:19.643Z,89
2022-12-19T15:48:19.079Z,89
2022-12-19T15:50:19.506Z,89
2022-12-19T15:52:17.535Z,89
2022-12-19T15:54:48.314Z,89
2022-12-19T15:56:20.848Z,89
2022-12-19T15:58:19.569Z,89
2022-12-19T16:00:16.589Z,89
2022-12-19T16:02:19.910Z,89
2022-12-19T16:04:19.035Z,89
2022-12-19T16:06:20.759Z,89
2022-12-19T16:08:18.895Z,89
2022-12-19T16:10:20.801Z,89
2022-12-19T16:12:19.297Z,89
2022-12-19T16:14:19.673Z,89
2022-12-19T16:16:17.855Z,89
2022-12-19T16:18:16.897Z,89
2022-12-19T16:20:17.560Z,89
2022-12-19T16:22:19.535Z,90
2022-12-19T16:24:21.297Z,90
2022-12-19T16:26:17.831Z,90
2022-12-19T16:28:17.386Z,90
2022-12-19T16:30:19.016Z,90
2022-12-19T16:32:17.620Z,90
2022-12-19T16:34:19.628Z,90
2022-12-19T16:36:17.058Z,90
2022-12-19T16:38:18.310Z,90
2022-12-19T16:42:19.727Z,90
2022-12-19T16:44:19.401Z,90
2022-12-19T16:46:18.493Z,90
2022-12-19T16:48:18.850Z,90
2022-12-19T16:50:14.913Z,90
2022-12-19T16:52:20.800Z,90
2022-12-19T16:54:23.860Z,90
2022-12-19T16:56:20.904Z,90
2022-12-19T16:58:20.656Z,90
2022-12-19T17:00:17.838Z,90
2022-12-19T17:02:19.967Z,90
2022-12-19T17:04:20.740Z,90
2022-12-19T17:06:19.339Z,90
2022-12-19T17:08:19.175Z,90
2022-12-19T17:10:21.287Z,90
2022-12-19T17:12:20.876Z,90
2022-12-19T17:14:19.757Z,90
2022-12-19T17:16:19.779Z,90
2022-12-19T17:18:17.235Z,90
2022-12-19T17:20:17.610Z,90
2022-12-19T17:22:17.551Z,90
2022-12-19T17:24:17.877Z,90
2022-12-19T17:26:20.837Z,90
2022-12-19T17:28:18.035Z,90
2022-12-19T17:30:16.667Z,90
2022-12-19T17:32:23.821Z,90
2022-12-19T17:34:18.823Z,90
2022-12-19T17:36:24.651Z,90
2022-12-19T17:38:18.475Z,90
2022-12-19T17:40:20.214Z,90
2022-12-19T17:42:18.668Z,90
2022-12-19T17:44:18.713Z,90
2022-12-19T17:46:21.405Z,90
2022-12-19T17:48:18.070Z,90
2022-12-19T17:50:19.728Z,90
2022-12-19T17:52:20.223Z,90
2022-12-19T17:54:18.494Z,90
2022-12-19T17:56:24.251Z,90
2022-12-19T17:58:20.827Z,90
2022-12-19T18:00:21.826Z,90
2022-12-19T18:02:21.192Z,90
2022-12-19T18:04:19.781Z,90
2022-12-19T18:06:17.634Z,90
2022-12-19T18:08:20.210Z,90
2022-12-19T18:10:17.562Z,90
2022-12-19T18:12:17.935Z,90
2022-12-19T18:14:24.368Z,90
2022-12-19T18:16:20.971Z,90
2022-12-19T18:18:17.638Z,90
2022-12-19T18:20:17.639Z,90
2022-12-19T18:22:17.997Z,90
2022-12-19T18:24:16.992Z,90
2022-12-19T18:26:20.894Z,90
2022-12-19T18:28:20.578Z,90
2022-12-19T18:30:18.253Z,90
2022-12-19T18:32:15.688Z,90
2022-12-19T18:34:19.898Z,90
2022-12-19T18:36:17.083Z,90
2022-12-19T18:38:20.799Z,90
2022-12-19T18:40:21.092Z,90
2022-12-19T18:42:17.725Z,90
2022-12-19T18:44:17.867Z,90
2022-12-19T18:46:24.251Z,90
2022-12-19T18:48:20.818Z,90
2022-12-19T18:50:17.669Z,90
2022-12-19T18:52:17.589Z,90
2022-12-19T18:54:18.065Z,90
2022-12-19T18:56:19.351Z,90
2022-12-19T18:58:20.815Z,90
2022-12-19T19:00:20.736Z,90
2022-12-19T19:02:21.104Z,90
2022-12-19T19:06:20.732Z,90
2022-12-19T19:08:19.758Z,90
2022-12-19T19:10:17.592Z,90
2022-12-19T19:12:17.585Z,90
2022-12-19T19:14:20.828Z,90
2022-12-19T19:16:20.905Z,90
2022-12-19T19:18:17.675Z,90
2022-12-19T19:20:19.788Z,90
2022-12-19T19:22:17.427Z,90
2022-12-19T19:24:18.008Z,90
2022-12-19T19:26:17.626Z,90
2022-12-19T19:28:20.209Z,91
2022-12-19T19:30:19.764Z,91
2022-12-19T19:32:18.127Z,91
2022-12-19T19:34:19.297Z,91
2022-12-19T19:36:19.734Z,91
2022-12-19T19:38:15.323Z,90
2022-12-19T19:40:18.279Z,90
2022-12-19T19:42:19.480Z,90
2022-12-19T19:44:18.300Z,90
2022-12-19T19:46:18.305Z,91
2022-12-19T19:48:18.491Z,91
2022-12-19T19:50:17.697Z,91
2022-12-19T19:52:20.762Z,91
2022-12-19T19:54:23.937Z,91
2022-12-19T19:56:17.682Z,91
2022-12-19T19:58:19.207Z,91
2022-12-19T20:00:19.383Z,91
2022-12-19T20:02:17.728Z,91
2022-12-19T20:04:19.136Z,91
2022-12-19T20:06:18.024Z,91
2022-12-19T20:08:21.008Z,91
2022-12-19T20:10:21.251Z,91
2022-12-19T20:12:19.679Z,91
2022-12-19T20:14:20.859Z,91
2022-12-19T20:16:18.258Z,91
2022-12-19T20:18:15.318Z,91
2022-12-19T20:20:20.988Z,90
2022-12-19T20:22:18.919Z,90
2022-12-19T20:24:17.298Z,91
2022-12-19T20:26:20.839Z,91
2022-12-19T20:28:19.779Z,91
2022-12-19T20:30:17.635Z,91
2022-12-19T20:32:17.065Z,91
2022-12-19T20:34:20.872Z,91
2022-12-19T20:36:20.831Z,91
2022-12-19T20:38:18.891Z,91
2022-12-19T20:40:17.036Z,91
2022-12-19T20:42:17.704Z,91
2022-12-19T20:44:24.039Z,91
2022-12-19T20:48:20.892Z,91
2022-12-19T20:50:20.805Z,91
2022-12-19T20:52:19.401Z,91
2022-12-19T20:54:19.434Z,91
2022-12-19T20:56:18.977Z,91
2022-12-19T20:58:19.690Z,91
2022-12-19T21:00:14.930Z,91
2022-12-19T21:02:17.763Z,91
2022-12-19T21:04:17.649Z,91
2022-12-19T21:06:19.303Z,91
2022-12-19T21:08:17.541Z,91
2022-12-19T21:10:18.480Z,91
2022-12-19T21:12:18.801Z,91
2022-12-19T21:14:17.179Z,91
2022-12-19T21:16:18.557Z,91
2022-12-19T21:18:20.146Z,91
2022-12-19T21:20:16.776Z,91
2022-12-19T21:22:20.760Z,91
2022-12-19T21:24:20.744Z,91
2022-12-19T21:28:19.267Z,91
2022-12-19T21:30:18.457Z,91
2022-12-19T21:32:19.098Z,91
2022-12-19T21:34:20.668Z,91
2022-12-19T21:36:19.439Z,91
2022-12-19T21:38:20.811Z,91
2022-12-19T21:40:20.855Z,91
2022-12-19T21:42:20.812Z,91
2022-12-19T21:44:19.434Z,91
2022-12-19T21:46:19.307Z,91
2022-12-19T21:48:21.433Z,91
2022-12-19T21:50:18.045Z,91
2022-12-19T21:52:18.450Z,91
2022-12-19T21:54:17.081Z,91
2022-12-19T21:56:20.940Z,91
2022-12-19T21:58:19.884Z,91
2022-12-19T22:00:18.069Z,91
2022-12-19T22:02:17.724Z,91
2022-12-19T22:04:19.369Z,91
2022-12-19T22:08:15.630Z,91
2022-12-19T22:10:19.299Z,91
2022-12-19T22:12:17.596Z,91
2022-12-19T22:14:17.960Z,91
2022-12-19T22:16:20.925Z,91
2022-12-19T22:18:17.916Z,91
2022-12-19T22:20:23.915Z,91
2022-12-19T22:22:19.670Z,91
2022-12-19T22:24:20.677Z,91
2022-12-19T22:26:17.654Z,91
2022-12-19T22:30:17.613Z,91
2022-12-19T22:32:16.615Z,91
2022-12-19T22:34:15.331Z,91
2022-12-19T22:36:21.062Z,91
2022-12-19T22:38:19.749Z,91
2022-12-19T22:40:17.602Z,91
2022-12-19T22:42:18.535Z,91
2022-12-19T22:44:17.604Z,91
2022-12-19T22:46:15.349Z,91
2022-12-19T22:48:19.874Z,91
2022-12-19T22:50:17.706Z,91
2022-12-19T22:52:20.850Z,91
2022-12-19T22:54:17.884Z,91
2022-12-19T22:56:20.650Z,91
2022-12-19T22:58:20.398Z,91
2022-12-19T23:00:17.665Z,91
2022-12-19T23:02:19.722Z,91
2022-12-19T23:04:20.946Z,91
2022-12-19T23:06:18.596Z,91
2022-12-19T23:08:19.880Z,91
2022-12-19T23:10:15.073Z,91
2022-12-19T23:12:17.722Z,91
2022-12-19T23:14:19.938Z,91
2022-12-19T23:16:17.730Z,91
2022-12-19T23:20:20.877Z,91
2022-12-19T23:22:17.709Z,91
2022-12-19T23:24:18.531Z,91
2022-12-19T23:26:17.752Z,91
2022-12-19T23:28:18.812Z,91
2022-12-19T23:30:18.610Z,91
2022-12-19T23:32:19.848Z,91
2022-12-19T23:34:20.920Z,91
2022-12-19T23:36:32.554Z,91
2022-12-19T23:38:17.697Z,91
2022-12-19T23:40:20.863Z,91
2022-12-19T23:42:19.515Z,91
2022-12-19T23:44:24.043Z,91
2022-12-19T23:46:21.073Z,91
2022-12-19T23:48:19.804Z,91
2022-12-19T23:50:19.839Z,91
2022-12-19T23:52:19.908Z,91
2022-12-19T23:54:18.564Z,91
2022-12-19T23:56:18.074Z,91
2022-12-19T23:58:19.241Z,91
